createdAt,value
2023-02-11T00:01:50.089Z,11.50
2023-02-11T00:04:17.119Z,11.23
2023-02-11T00:06:43.897Z,12.25
2023-02-11T00:09:11.452Z,13.35
2023-02-11T00:11:38.187Z,12.25
2023-02-11T00:14:08.292Z,11.25
2023-02-11T00:16:35.113Z,11.85
2023-02-11T00:19:03.326Z,11.43
2023-02-11T00:21:30.130Z,11.85
2023-02-11T00:23:59.953Z,12.98
2023-02-11T00:26:35.092Z,13.05
2023-02-11T00:29:02.494Z,13.13
2023-02-11T00:31:31.490Z,12.75
2023-02-11T00:33:58.215Z,12.88
2023-02-11T00:36:27.632Z,13.52
2023-02-11T00:38:56.595Z,12.05
2023-02-11T00:41:23.833Z,13.50
2023-02-11T00:43:51.245Z,11.88
2023-02-11T00:46:19.053Z,12.52
2023-02-11T00:48:45.924Z,12.27
2023-02-11T00:51:12.700Z,11.63
2023-02-11T00:53:39.467Z,10.98
2023-02-11T00:56:08.004Z,11.98
2023-02-11T00:58:34.979Z,11.40
2023-02-11T01:01:01.675Z,11.88
2023-02-11T01:03:28.384Z,11.98
2023-02-11T01:05:55.548Z,10.93
2023-02-11T01:08:22.421Z,11.90
2023-02-11T01:11:04.391Z,10.52
2023-02-11T01:13:35.004Z,9.80
2023-02-11T01:16:01.704Z,9.73
2023-02-11T01:18:28.574Z,11.00
2023-02-11T01:20:55.273Z,9.70
2023-02-11T01:23:23.578Z,9.73
2023-02-11T01:25:51.346Z,10.38
2023-02-11T01:28:20.033Z,9.90
2023-02-11T01:30:47.173Z,10.98
2023-02-11T01:33:14.144Z,10.30
2023-02-11T01:35:44.445Z,10.43
2023-02-11T01:38:23.897Z,9.60
2023-02-11T01:40:55.650Z,12.23
2023-02-11T01:43:24.732Z,10.75
2023-02-11T01:45:59.396Z,10.07
2023-02-11T01:48:36.674Z,10.90
2023-02-11T01:51:09.287Z,10.18
2023-02-11T01:53:57.084Z,11.07
2023-02-11T01:56:45.560Z,11.05
2023-02-11T01:59:17.330Z,11.43
2023-02-11T02:01:50.548Z,11.55
2023-02-11T02:04:19.188Z,11.93
2023-02-11T02:07:24.372Z,11.45
2023-02-11T02:10:00.395Z,11.68
2023-02-11T02:12:27.144Z,11.52
2023-02-11T02:15:17.610Z,11.63
2023-02-11T02:18:01.004Z,11.95
2023-02-11T02:20:45.806Z,11.57
2023-02-11T02:23:18.430Z,10.45
2023-02-11T02:26:00.206Z,9.63
2023-02-11T02:29:18.003Z,10.15
2023-02-11T02:32:10.353Z,8.90
2023-02-11T02:34:53.175Z,9.43
2023-02-11T02:37:37.893Z,8.77
2023-02-11T02:40:12.782Z,9.50
2023-02-11T02:42:41.180Z,8.68
2023-02-11T02:45:10.514Z,7.45
2023-02-11T02:47:37.317Z,7.57
2023-02-11T02:50:06.141Z,7.72
2023-02-11T02:53:06.514Z,8.48
2023-02-11T02:55:38.869Z,8.00
2023-02-11T02:58:20.402Z,7.40
2023-02-11T03:00:47.079Z,7.97
2023-02-11T03:03:40.968Z,8.88
2023-02-11T03:06:29.863Z,8.25
2023-02-11T03:09:39.296Z,8.07
2023-02-11T03:12:07.020Z,8.48
2023-02-11T03:14:35.797Z,9.05
2023-02-11T03:17:05.626Z,8.73
2023-02-11T03:19:37.742Z,8.82
2023-02-11T03:22:09.727Z,8.57
2023-02-11T03:24:39.618Z,7.43
2023-02-11T03:27:25.945Z,8.95
2023-02-11T03:30:01.317Z,8.80
2023-02-11T03:32:35.705Z,8.48
2023-02-11T03:35:21.482Z,8.38
2023-02-11T03:37:57.073Z,6.93
2023-02-11T03:43:03.214Z,7.57
2023-02-11T03:45:30.743Z,7.45
2023-02-11T03:48:08.914Z,8.98
2023-02-11T03:50:37.331Z,6.82
2023-02-11T03:53:05.356Z,7.90
2023-02-11T03:55:36.917Z,7.72
2023-02-11T03:58:03.959Z,7.78
2023-02-11T04:00:36.692Z,7.90
2023-02-11T04:03:04.502Z,7.22
2023-02-11T04:05:31.567Z,8.27
2023-02-11T04:07:58.306Z,7.15
2023-02-11T04:10:25.656Z,6.60
2023-02-11T04:12:52.405Z,7.45
2023-02-11T04:15:19.151Z,7.28
2023-02-11T04:17:45.818Z,7.90
2023-02-11T04:20:13.021Z,7.97
2023-02-11T04:22:40.275Z,7.57
2023-02-11T04:25:07.924Z,8.38
2023-02-11T04:27:34.575Z,7.38
2023-02-11T04:30:01.200Z,7.25
2023-02-11T04:32:28.076Z,7.80
2023-02-11T04:34:55.359Z,8.00
2023-02-11T04:37:22.102Z,8.32
2023-02-11T04:39:48.729Z,8.18
2023-02-11T04:42:15.614Z,8.55
2023-02-11T04:44:42.230Z,8.23
2023-02-11T04:47:08.946Z,9.25
2023-02-11T04:49:35.690Z,9.77
2023-02-11T04:52:02.310Z,9.10
2023-02-11T04:54:28.923Z,8.68
2023-02-11T04:56:55.524Z,8.85
2023-02-11T04:59:22.174Z,8.40
2023-02-11T05:01:49.893Z,8.68
2023-02-11T05:04:16.874Z,7.65
2023-02-11T05:06:43.608Z,8.85
2023-02-11T05:09:14.435Z,8.35
2023-02-11T05:11:41.121Z,8.90
2023-02-11T05:14:07.869Z,8.27
2023-02-11T05:16:34.925Z,8.23
2023-02-11T05:19:01.552Z,8.57
2023-02-11T05:21:28.274Z,7.55
2023-02-11T05:23:54.847Z,7.25
2023-02-11T05:26:21.536Z,7.55
2023-02-11T05:28:48.223Z,7.60
2023-02-11T05:31:15.206Z,7.07
2023-02-11T05:33:42.076Z,6.78
2023-02-11T05:36:11.729Z,6.97
2023-02-11T05:38:38.972Z,7.07
2023-02-11T05:41:06.527Z,5.88
2023-02-11T05:43:35.361Z,7.82
2023-02-11T05:46:03.797Z,6.78
2023-02-11T05:48:31.042Z,7.00
2023-02-11T05:50:57.883Z,6.97
2023-02-11T05:53:24.556Z,6.70
2023-02-11T05:55:51.653Z,6.60
2023-02-11T05:58:18.475Z,6.32
2023-02-11T06:00:45.164Z,6.15
2023-02-11T06:03:11.794Z,6.53
2023-02-11T06:05:38.664Z,6.70
2023-02-11T06:08:05.526Z,6.32
2023-02-11T06:10:32.179Z,6.72
2023-02-11T06:12:58.801Z,6.18
2023-02-11T06:15:25.524Z,7.20
2023-02-11T06:17:52.364Z,6.63
2023-02-11T06:20:19.655Z,6.05
2023-02-11T06:22:46.919Z,6.47
2023-02-11T06:25:14.144Z,5.80
2023-02-11T06:27:41.199Z,5.63
2023-02-11T06:30:08.619Z,6.10
2023-02-11T06:32:43.935Z,6.18
2023-02-11T06:35:12.559Z,7.10
2023-02-11T06:37:40.970Z,6.78
2023-02-11T06:40:08.180Z,6.70
2023-02-11T06:42:36.262Z,6.45
2023-02-11T06:45:06.063Z,6.80
2023-02-11T06:47:32.994Z,7.32
2023-02-11T06:49:59.762Z,6.50
2023-02-11T06:52:26.431Z,6.18
2023-02-11T06:54:53.008Z,6.88
2023-02-11T06:57:19.817Z,7.07
2023-02-11T06:59:46.370Z,7.65
2023-02-11T07:02:13.029Z,8.50
2023-02-11T07:04:39.732Z,7.30
2023-02-11T07:07:06.557Z,6.57
2023-02-11T07:09:33.143Z,7.53
2023-02-11T07:11:59.772Z,7.38
2023-02-11T07:14:26.347Z,7.40
2023-02-11T07:16:53.116Z,8.27
2023-02-11T07:19:20.051Z,7.43
2023-02-11T07:21:46.756Z,7.97
2023-02-11T07:24:13.333Z,8.35
2023-02-11T07:26:40.320Z,8.55
2023-02-11T07:29:07.111Z,7.80
2023-02-11T07:31:33.971Z,7.53
2023-02-11T07:34:01.931Z,8.65
2023-02-11T07:36:30.107Z,8.25
2023-02-11T07:38:56.684Z,8.07
2023-02-11T07:41:24.854Z,7.47
2023-02-11T07:43:51.804Z,6.95
2023-02-11T07:46:25.858Z,7.65
2023-02-11T07:48:53.195Z,7.30
2023-02-11T07:51:22.999Z,7.18
2023-02-11T07:53:50.020Z,7.40
2023-02-11T07:56:18.135Z,8.02
2023-02-11T07:58:45.550Z,7.65
2023-02-11T08:01:16.630Z,8.48
2023-02-11T08:03:43.843Z,6.55
2023-02-11T08:06:14.167Z,7.35
2023-02-11T08:08:41.881Z,7.60
2023-02-11T08:11:09.938Z,7.22
2023-02-11T08:13:37.320Z,8.30
2023-02-11T08:16:04.872Z,7.35
2023-02-11T08:18:32.496Z,7.85
2023-02-11T08:21:17.910Z,8.50
2023-02-11T08:23:45.488Z,7.45
2023-02-11T08:26:20.158Z,8.32
2023-02-11T08:28:48.119Z,10.57
2023-02-11T08:31:18.085Z,9.30
2023-02-11T08:33:45.287Z,8.50
2023-02-11T08:36:23.962Z,8.73
2023-02-11T08:38:51.085Z,8.05
2023-02-11T08:41:18.239Z,8.15
2023-02-11T08:43:46.149Z,8.15
2023-02-11T08:46:16.260Z,8.02
2023-02-11T08:48:43.737Z,9.05
2023-02-11T08:51:15.589Z,9.35
2023-02-11T08:53:42.674Z,9.77
2023-02-11T08:56:13.347Z,9.57
2023-02-11T08:58:40.823Z,9.77
2023-02-11T09:01:29.112Z,8.88
2023-02-11T09:03:57.132Z,7.97
2023-02-11T09:06:25.721Z,7.82
2023-02-11T09:08:54.802Z,8.40
2023-02-11T09:11:34.394Z,7.45
2023-02-11T09:14:02.183Z,6.82
2023-02-11T09:16:36.091Z,8.80
2023-02-11T09:19:04.755Z,8.45
2023-02-11T09:21:31.892Z,8.63
2023-02-11T09:23:58.602Z,8.20
2023-02-11T09:26:28.381Z,7.65
2023-02-11T09:28:55.549Z,8.55
2023-02-11T09:31:24.998Z,7.75
2023-02-11T09:33:56.326Z,6.50
2023-02-11T09:36:25.694Z,6.35
2023-02-11T09:38:53.349Z,7.28
2023-02-11T09:41:54.814Z,6.35
2023-02-11T09:44:24.080Z,7.07
2023-02-11T09:47:00.669Z,7.20
2023-02-11T09:49:47.192Z,8.50
2023-02-11T09:52:33.331Z,7.97
2023-02-11T09:55:11.203Z,7.90
2023-02-11T09:57:37.969Z,6.82
2023-02-11T10:00:32.266Z,7.45
2023-02-11T10:03:08.363Z,7.32
2023-02-11T10:05:56.419Z,7.43
2023-02-11T10:08:44.181Z,8.10
2023-02-11T10:11:46.074Z,6.38
2023-02-11T10:14:16.507Z,8.88
2023-02-11T10:16:45.805Z,7.50
2023-02-11T10:19:21.185Z,6.90
2023-02-11T10:22:04.907Z,7.15
2023-02-11T10:24:32.421Z,7.25
2023-02-11T10:26:59.341Z,7.68
2023-02-11T10:29:43.571Z,7.20
2023-02-11T10:32:46.594Z,6.57
2023-02-11T10:35:21.168Z,6.70
2023-02-11T10:37:48.759Z,7.95
2023-02-11T10:40:25.057Z,7.25
2023-02-11T10:42:55.873Z,8.77
2023-02-11T10:45:32.488Z,7.57
2023-02-11T10:48:01.171Z,7.65
2023-02-11T10:50:33.472Z,7.50
2023-02-11T10:53:15.437Z,8.18
2023-02-11T10:55:54.139Z,8.55
2023-02-11T10:58:30.679Z,7.90
2023-02-11T11:00:59.822Z,7.72
2023-02-11T11:03:31.384Z,7.85
2023-02-11T11:06:01.024Z,7.00
2023-02-11T11:08:47.872Z,6.88
2023-02-11T11:11:22.434Z,7.45
2023-02-11T11:13:58.208Z,8.00
2023-02-11T11:16:30.522Z,7.88
2023-02-11T11:19:09.176Z,7.82
2023-02-11T11:21:54.944Z,7.65
2023-02-11T11:24:44.349Z,7.53
2023-02-11T11:27:19.655Z,7.03
2023-02-11T11:29:50.191Z,7.93
2023-02-11T11:32:21.888Z,7.03
2023-02-11T11:34:51.490Z,7.88
2023-02-11T11:37:32.502Z,7.45
2023-02-11T11:40:29.595Z,7.55
2023-02-11T11:43:12.964Z,7.68
2023-02-11T11:45:40.482Z,7.50
2023-02-11T11:48:18.536Z,7.03
2023-02-11T11:50:52.218Z,6.70
2023-02-11T11:53:37.366Z,7.22
2023-02-11T11:56:07.333Z,6.65
2023-02-11T11:58:34.411Z,7.20
2023-02-11T12:01:09.804Z,6.45
2023-02-11T12:03:36.407Z,7.22
2023-02-11T12:06:15.240Z,7.28
2023-02-11T12:08:59.006Z,6.82
2023-02-11T12:11:34.776Z,7.13
2023-02-11T12:14:23.264Z,7.85
2023-02-11T12:16:55.770Z,6.57
2023-02-11T12:19:40.312Z,6.68
2023-02-11T12:22:26.631Z,7.13
2023-02-11T12:25:21.124Z,6.88
2023-02-11T12:28:01.963Z,7.35
2023-02-11T12:30:40.178Z,6.90
2023-02-11T12:33:12.506Z,6.38
2023-02-11T12:35:59.719Z,6.47
2023-02-11T12:38:37.539Z,6.03
2023-02-11T12:41:10.382Z,6.47
2023-02-11T12:43:40.117Z,5.32
2023-02-11T12:46:32.941Z,5.13
2023-02-11T12:49:21.435Z,4.70
2023-02-11T12:52:09.262Z,6.00
2023-02-11T12:54:44.653Z,5.68
2023-02-11T12:57:19.758Z,5.72
2023-02-11T13:00:05.083Z,5.53
2023-02-11T13:02:51.324Z,6.80
2023-02-11T13:05:33.768Z,7.70
2023-02-11T13:08:09.109Z,7.55
2023-02-11T13:10:41.549Z,7.85
2023-02-11T13:13:26.827Z,7.95
2023-02-11T13:16:12.481Z,7.70
2023-02-11T13:19:07.808Z,7.82
2023-02-11T13:21:51.365Z,7.50
2023-02-11T13:24:37.190Z,7.47
2023-02-11T13:27:18.673Z,8.10
2023-02-11T13:30:29.053Z,7.90
2023-02-11T13:33:03.254Z,8.95
2023-02-11T13:35:37.764Z,7.90
2023-02-11T13:38:16.432Z,8.32
2023-02-11T13:40:43.931Z,9.07
2023-02-11T13:43:24.573Z,9.85
2023-02-11T13:45:57.942Z,8.80
2023-02-11T13:48:37.243Z,9.30
2023-02-11T13:51:07.590Z,8.90
2023-02-11T13:53:50.689Z,9.50
2023-02-11T13:56:30.296Z,9.45
2023-02-11T13:59:01.855Z,8.50
2023-02-11T14:02:07.295Z,9.90
2023-02-11T14:04:53.234Z,9.32
2023-02-11T14:07:52.771Z,8.10
2023-02-11T14:10:41.143Z,9.48
2023-02-11T14:13:27.468Z,8.27
2023-02-11T14:16:36.852Z,9.35
2023-02-11T14:19:06.228Z,8.35
2023-02-11T14:21:42.297Z,9.20
2023-02-11T14:24:12.927Z,8.93
2023-02-11T14:26:59.210Z,9.00
2023-02-11T14:29:34.647Z,7.13
2023-02-11T14:32:05.818Z,6.57
2023-02-11T14:34:41.863Z,6.60
2023-02-11T14:37:30.494Z,7.03
2023-02-11T14:40:03.078Z,7.90
2023-02-11T14:42:31.200Z,7.13
2023-02-11T14:45:05.335Z,7.40
2023-02-11T14:47:42.894Z,6.80
2023-02-11T14:50:19.315Z,7.70
2023-02-11T14:52:46.390Z,7.65
2023-02-11T14:55:23.773Z,7.40
2023-02-11T14:58:06.265Z,7.00
2023-02-11T15:00:32.954Z,7.68
2023-02-11T15:02:59.609Z,8.35
2023-02-11T15:05:29.321Z,8.35
2023-02-11T15:07:59.120Z,8.88
2023-02-11T15:10:32.915Z,8.80
2023-02-11T15:13:02.173Z,8.73
2023-02-11T15:15:31.392Z,8.52
2023-02-11T15:18:01.600Z,8.50
2023-02-11T15:20:31.822Z,8.70
2023-02-11T15:23:05.555Z,8.05
2023-02-11T15:25:34.139Z,8.95
2023-02-11T15:28:01.112Z,8.75
2023-02-11T15:30:34.184Z,7.93
2023-02-11T15:33:05.845Z,8.27
2023-02-11T15:35:40.968Z,8.23
2023-02-11T15:38:11.045Z,7.88
2023-02-11T15:40:37.951Z,8.77
2023-02-11T15:43:10.633Z,8.20
2023-02-11T15:45:44.598Z,8.43
2023-02-11T15:48:21.640Z,8.70
2023-02-11T15:51:01.549Z,10.07
2023-02-11T15:53:36.316Z,8.55
2023-02-11T15:56:11.763Z,9.40
2023-02-11T15:58:40.854Z,10.52
2023-02-11T16:01:08.804Z,10.23
2023-02-11T16:03:36.301Z,9.85
2023-02-11T16:06:35.474Z,10.65
2023-02-11T16:09:23.624Z,11.27
2023-02-11T16:11:50.260Z,11.82
2023-02-11T16:14:27.169Z,10.25
2023-02-11T16:16:58.836Z,10.25
2023-02-11T16:19:27.192Z,10.70
2023-02-11T16:21:56.613Z,11.75
2023-02-11T16:24:34.211Z,13.18
2023-02-11T16:27:03.119Z,12.32
2023-02-11T16:29:32.600Z,10.18
2023-02-11T16:32:28.934Z,10.02
2023-02-11T16:34:58.094Z,10.07
2023-02-11T16:37:25.606Z,9.25
2023-02-11T16:39:56.869Z,8.88
2023-02-11T16:42:23.712Z,9.40
2023-02-11T16:44:50.331Z,9.70
2023-02-11T16:47:24.338Z,9.38
2023-02-11T16:49:51.222Z,11.73
2023-02-11T16:52:19.814Z,9.73
2023-02-11T16:54:46.739Z,10.45
2023-02-11T16:57:24.600Z,9.45
2023-02-11T16:59:52.269Z,10.20
2023-02-11T17:02:24.119Z,10.07
2023-02-11T17:04:53.500Z,13.65
2023-02-11T17:07:20.185Z,9.80
2023-02-11T17:09:46.819Z,10.35
2023-02-11T17:12:13.602Z,12.32
2023-02-11T17:14:40.698Z,10.93
2023-02-11T17:17:08.042Z,11.02
2023-02-11T17:19:34.824Z,10.38
2023-02-11T17:22:01.601Z,11.52
2023-02-11T17:24:28.320Z,12.60
2023-02-11T17:26:55.133Z,13.70
2023-02-11T17:29:24.230Z,11.80
2023-02-11T17:31:52.204Z,12.90
2023-02-11T17:34:20.842Z,12.45
2023-02-11T17:36:47.743Z,10.45
2023-02-11T17:39:14.494Z,10.50
2023-02-11T17:41:41.467Z,12.38
2023-02-11T17:44:10.458Z,12.35
2023-02-11T17:46:37.086Z,11.15
2023-02-11T17:49:04.655Z,11.27
2023-02-11T17:51:34.694Z,12.15
2023-02-11T17:54:04.499Z,11.52
2023-02-11T17:56:36.197Z,12.52
2023-02-11T17:59:04.161Z,10.88
2023-02-11T18:01:33.034Z,11.35
2023-02-11T18:03:59.916Z,14.05
2023-02-11T18:06:27.074Z,21.38
2023-02-11T18:08:56.884Z,15.95
2023-02-11T18:11:25.264Z,12.82
2023-02-11T18:13:54.607Z,11.27
2023-02-11T18:16:23.742Z,12.60
2023-02-11T18:18:50.696Z,11.73
2023-02-11T18:21:20.359Z,11.05
2023-02-11T18:23:48.303Z,11.48
2023-02-11T18:26:17.981Z,10.55
2023-02-11T18:28:46.062Z,10.48
2023-02-11T18:31:13.851Z,10.60
2023-02-11T18:33:41.661Z,11.30
2023-02-11T18:36:11.154Z,12.35
2023-02-11T18:38:38.450Z,11.45
2023-02-11T18:41:05.368Z,11.77
2023-02-11T18:43:33.739Z,11.60
2023-02-11T18:46:02.197Z,11.43
2023-02-11T18:48:29.257Z,13.38
2023-02-11T18:50:56.460Z,12.65
2023-02-11T18:53:24.592Z,11.45
2023-02-11T18:55:52.080Z,11.07
2023-02-11T18:58:21.179Z,11.68
2023-02-11T19:00:49.111Z,11.80
2023-02-11T19:03:16.654Z,14.35
2023-02-11T19:05:48.315Z,13.43
2023-02-11T19:08:16.912Z,11.73
2023-02-11T19:10:47.924Z,11.43
2023-02-11T19:13:15.039Z,12.48
2023-02-11T19:15:43.477Z,11.80
2023-02-11T19:18:11.105Z,11.88
2023-02-11T19:20:43.457Z,12.35
2023-02-11T19:23:10.852Z,13.10
2023-02-11T19:25:37.766Z,15.55
2023-02-11T19:28:04.442Z,14.07
2023-02-11T19:30:31.089Z,15.48
2023-02-11T19:32:57.924Z,16.52
2023-02-11T19:35:25.297Z,21.45
2023-02-11T19:37:52.066Z,26.33
2023-02-11T19:40:21.113Z,29.33
2023-02-11T19:42:47.911Z,32.90
2023-02-11T19:45:14.595Z,30.58
2023-02-11T19:47:41.392Z,29.30
2023-02-11T19:50:08.649Z,25.10
2023-02-11T19:52:38.317Z,22.35
2023-02-11T19:55:05.468Z,20.00
2023-02-11T19:57:32.126Z,17.08
2023-02-11T19:59:58.967Z,18.23
2023-02-11T20:02:25.651Z,15.48
2023-02-11T20:04:52.474Z,14.88
2023-02-11T20:07:19.010Z,15.10
2023-02-11T20:09:45.682Z,15.02
2023-02-11T20:12:12.436Z,15.82
2023-02-11T20:14:39.087Z,13.57
2023-02-11T20:17:05.663Z,14.07
2023-02-11T20:19:32.450Z,12.30
2023-02-11T20:21:59.146Z,13.10
2023-02-11T20:24:26.265Z,13.18
2023-02-11T20:26:56.060Z,11.88
2023-02-11T20:29:23.745Z,12.13
2023-02-11T20:31:50.808Z,11.82
2023-02-11T20:34:17.896Z,13.32
2023-02-11T20:36:51.482Z,11.63
2023-02-11T20:39:18.982Z,12.88
2023-02-11T20:41:46.210Z,11.45
2023-02-11T20:44:13.808Z,12.23
2023-02-11T20:46:43.599Z,12.60
2023-02-11T20:49:12.582Z,13.95
2023-02-11T20:51:39.555Z,14.23
2023-02-11T20:54:06.936Z,15.18
2023-02-11T20:56:38.231Z,15.00
2023-02-11T20:59:05.839Z,14.27
2023-02-11T21:01:40.282Z,13.93
2023-02-11T21:04:12.803Z,15.60
2023-02-11T21:06:42.964Z,16.23
2023-02-11T21:09:13.995Z,16.90
2023-02-11T21:11:41.549Z,14.75
2023-02-11T21:14:10.041Z,19.17
2023-02-11T21:16:36.951Z,19.60
2023-02-11T21:19:04.325Z,17.55
2023-02-11T21:21:31.915Z,16.73
2023-02-11T21:23:58.696Z,17.50
2023-02-11T21:26:25.945Z,17.95
2023-02-11T21:28:52.946Z,15.43
2023-02-11T21:31:22.928Z,17.33
2023-02-11T21:33:50.946Z,16.45
2023-02-11T21:36:17.916Z,17.48
2023-02-11T21:38:44.910Z,14.85
2023-02-11T21:41:12.002Z,11.93
2023-02-11T21:43:38.974Z,13.32
2023-02-11T21:46:10.550Z,14.13
2023-02-11T21:48:37.700Z,14.35
2023-02-11T21:51:12.833Z,14.18
2023-02-11T21:53:39.635Z,12.93
2023-02-11T21:56:08.810Z,12.65
2023-02-11T21:58:36.061Z,11.95
2023-02-11T22:01:19.899Z,14.35
2023-02-11T22:03:47.305Z,13.02
2023-02-11T22:06:17.166Z,13.60
2023-02-11T22:08:43.983Z,13.80
2023-02-11T22:11:12.613Z,11.98
2023-02-11T22:13:40.045Z,11.68
2023-02-11T22:16:09.825Z,13.80
2023-02-11T22:18:36.797Z,12.93
2023-02-11T22:21:06.564Z,12.68
2023-02-11T22:23:33.899Z,12.10
2023-02-11T22:26:14.089Z,12.40
2023-02-11T22:28:40.966Z,12.70
2023-02-11T22:31:13.491Z,13.85
2023-02-11T22:33:40.782Z,13.73
2023-02-11T22:36:12.132Z,13.20
2023-02-11T22:38:38.979Z,12.52
2023-02-11T22:41:08.070Z,11.60
2023-02-11T22:43:35.178Z,13.02
2023-02-11T22:46:07.272Z,13.18
2023-02-11T22:48:35.284Z,12.88
2023-02-11T22:51:06.685Z,12.35
2023-02-11T22:53:33.847Z,13.05
2023-02-11T22:56:05.527Z,12.68
2023-02-11T22:58:32.216Z,12.80
2023-02-11T23:00:58.895Z,11.98
2023-02-11T23:03:26.280Z,11.30
2023-02-11T23:05:53.109Z,12.95
2023-02-11T23:08:20.690Z,12.95
2023-02-11T23:10:47.409Z,12.30
2023-02-11T23:13:14.942Z,12.55
2023-02-11T23:15:43.133Z,13.60
2023-02-11T23:18:11.318Z,12.80
2023-02-11T23:20:39.850Z,11.98
2023-02-11T23:23:09.384Z,13.35
2023-02-11T23:25:42.643Z,13.10
2023-02-11T23:28:10.046Z,13.40
2023-02-11T23:30:36.888Z,13.68
2023-02-11T23:33:03.587Z,13.50
2023-02-11T23:35:30.495Z,13.10
2023-02-11T23:37:57.171Z,12.63
2023-02-11T23:40:23.953Z,14.63
2023-02-11T23:42:50.634Z,14.98
2023-02-11T23:45:17.349Z,13.95
2023-02-11T23:47:45.116Z,14.40
2023-02-11T23:50:11.997Z,14.10
2023-02-11T23:52:38.703Z,14.80
2023-02-11T23:55:05.863Z,14.43
2023-02-11T23:57:33.204Z,15.43
